| time (UTC) | temp F | wind direction | speed MPH | gust MPH | rain 1hr in | rain 24hr in | rain mn in | humidity % | barometer mb |
| 20260902154950 | 66 | 274 | 0.0 | 0.0 | 0.00 | 0.00 | 0.00 | 63 | 1018.5 |
| 20260902154202 | 65 | 274 | 0.0 | 0.0 | 0.00 | 0.00 | 0.00 | 63 | 1018.5 |
| 20260902153705 | 65 | 274 | 0.0 | 0.0 | 0.00 | 0.00 | 0.00 | 66 | 1018.4 |
| 20260902153451 | 64 | 274 | 0.0 | 0.0 | 0.00 | 0.00 | 0.00 | 65 | 1018.4 |
| 20260902152701 | 63 | 274 | 0.0 | 0.0 | 0.00 | 0.00 | 0.00 | 68 | 1018.4 |
| 20260902152203 | 62 | 274 | 0.0 | 0.0 | 0.00 | 0.00 | 0.00 | 70 | 1018.3 |
| 20260902151704 | 61 | 274 | 0.0 | 0.0 | 0.00 | 0.00 | 0.00 | 71 | 1018.2 |
| 20260902151203 | 60 | 274 | 0.0 | 0.0 | 0.00 | 0.00 | 0.00 | 73 | 1018.1 |
| 20260902150704 | 60 | 274 | 0.0 | 0.0 | 0.00 | 0.00 | 0.00 | 74 | 1018.0 |
| 20260902150204 | 59 | 274 | 0.0 | 0.0 | 0.00 | 0.00 | 0.00 | 75 | 1017.9 |
| 20260902145704 | 59 | 274 | 0.0 | 0.0 | 0.00 | 0.00 | 0.00 | 76 | 1018.0 |
| 20260902145452 | 58 | 274 | 0.0 | 0.0 | 0.00 | 0.00 | 0.00 | 76 | 1017.9 |
| 20260902144703 | 58 | 274 | 0.0 | 0.0 | 0.00 | 0.00 | 0.00 | 77 | 1017.9 |
| 20260902144203 | 58 | 274 | 0.0 | 0.0 | 0.00 | 0.00 | 0.00 | 76 | 1017.8 |
| 20260902143704 | 58 | 274 | 0.0 | 0.0 | 0.00 | 0.00 | 0.00 | 77 | 1017.8 |
| 20260902143203 | 57 | 274 | 0.0 | 0.0 | 0.00 | 0.00 | 0.00 | 77 | 1017.7 |
| 20260902142947 | 57 | 274 | 0.0 | 0.0 | 0.00 | 0.00 | 0.00 | 77 | 1017.5 |
| 20260902142204 | 57 | 274 | 0.0 | 0.0 | 0.00 | 0.00 | 0.00 | 78 | 1017.4 |
| 20260902141923 | 57 | 274 | 0.0 | 0.0 | 0.00 | 0.00 | 0.00 | 78 | 1017.4 |
| 20260902141750 | 57 | 274 | 0.0 | 0.0 | 0.00 | 0.00 | 0.00 | 78 | 1017.4 |
| 20260902141205 | 57 | 274 | 0.0 | 0.0 | 0.00 | 0.00 | 0.00 | 78 | 1017.4 |
| 20260902140955 | 57 | 274 | 0.0 | 0.0 | 0.00 | 0.00 | 0.00 | 79 | 1017.3 |
| 20260902140204 | 57 | 274 | 0.0 | 0.0 | 0.00 | 0.00 | 0.00 | 79 | 1017.3 |
| 20260902135719 | 56 | 274 | 0.0 | 0.0 | 0.00 | 0.00 | 0.00 | 78 | 1017.1 |
| 20260902135707 | 56 | 274 | 0.0 | 0.0 | 0.00 | 0.00 | 0.00 | 79 | 1017.3 |
| 20260902135210 | 56 | 274 | 0.0 | 0.0 | 0.00 | 0.00 | 0.00 | 78 | 1017.1 |
| 20260902134720 | 56 | 274 | 0.0 | 0.0 | 0.00 | 0.00 | 0.00 | 78 | 1017.1 |
| 20260902134204 | 57 | 274 | 0.0 | 0.0 | 0.00 | 0.00 | 0.00 | 78 | 1017.0 |
| 20260902133703 | 57 | 274 | 0.0 | 0.0 | 0.00 | 0.00 | 0.00 | 78 | 1016.9 |
| 20260902133203 | 57 | 274 | 0.0 | 0.0 | 0.00 | 0.00 | 0.00 | 76 | 1016.8 |
| 20260902132704 | 57 | 274 | 0.0 | 0.0 | 0.00 | 0.00 | 0.00 | 76 | 1016.9 |
| 20260902132236 | 57 | 274 | 0.0 | 0.0 | 0.00 | 0.00 | 0.00 | 75 | 1016.7 |
| 20260902132221 | 57 | 274 | 0.0 | 0.0 | 0.00 | 0.00 | 0.00 | 75 | 1016.8 |
| 20260902131204 | 57 | 274 | 0.0 | 0.0 | 0.00 | 0.00 | 0.00 | 74 | 1016.6 |
| 20260902130705 | 58 | 274 | 0.0 | 0.0 | 0.00 | 0.00 | 0.00 | 74 | 1016.6 |
| 20260902130439 | 58 | 274 | 0.0 | 0.0 | 0.00 | 0.00 | 0.00 | 74 | 1016.6 |
| 20260902125705 | 58 | 274 | 0.0 | 0.0 | 0.00 | 0.00 | 0.00 | 73 | 1016.5 |
| 20260902125202 | 58 | 274 | 0.0 | 0.0 | 0.00 | 0.00 | 0.00 | 73 | 1016.5 |
| 20260902124702 | 58 | 274 | 0.0 | 0.0 | 0.00 | 0.00 | 0.00 | 72 | 1016.5 |
| 20260902124205 | 58 | 274 | 0.0 | 0.0 | 0.00 | 0.00 | 0.00 | 72 | 1016.4 |
| 20260902123703 | 59 | 274 | 0.0 | 0.0 | 0.00 | 0.00 | 0.00 | 72 | 1016.5 |
| 20260902123204 | 59 | 274 | 0.0 | 0.0 | 0.00 | 0.00 | 0.00 | 72 | 1016.4 |
| 20260902122702 | 59 | 274 | 0.0 | 0.0 | 0.00 | 0.00 | 0.00 | 72 | 1016.4 |
| 20260902122203 | 59 | 274 | 0.0 | 0.0 | 0.00 | 0.00 | 0.00 | 71 | 1016.3 |
| 20260902121702 | 59 | 274 | 0.0 | 0.0 | 0.00 | 0.00 | 0.00 | 71 | 1016.3 |
| 20260902121201 | 59 | 274 | 0.0 | 0.0 | 0.00 | 0.00 | 0.00 | 71 | 1016.2 |
| 20260902120702 | 60 | 274 | 0.0 | 0.0 | 0.00 | 0.00 | 0.00 | 71 | 1016.3 |
| 20260902120203 | 60 | 274 | 0.0 | 0.0 | 0.00 | 0.00 | 0.00 | 71 | 1016.4 |
| 20260902115703 | 60 | 274 | 0.0 | 0.0 | 0.00 | 0.00 | 0.00 | 71 | 1016.4 |
| 20260902115205 | 60 | 274 | 0.0 | 0.0 | 0.00 | 0.00 | 0.00 | 71 | 1016.4 |
| 20260902114701 | 60 | 274 | 0.0 | 11.0 | 0.00 | 0.00 | 0.00 | 70 | 1016.4 |
| 20260902114205 | 60 | 274 | 0.0 | 11.0 | 0.00 | 0.00 | 0.00 | 70 | 1016.5 |
| 20260902113702 | 60 | 303 | 0.0 | 0.0 | 0.00 | 0.00 | 0.00 | 70 | 1016.5 |
| 20260902113204 | 60 | 303 | 0.0 | 4.0 | 0.00 | 0.00 | 0.00 | 69 | 1016.4 |
| 20260902112705 | 60 | 303 | 0.0 | 4.0 | 0.00 | 0.00 | 0.00 | 69 | 1016.4 |
| 20260902112204 | 60 | 311 | 0.0 | 0.0 | 0.00 | 0.00 | 0.00 | 69 | 1016.4 |
| 20260902111705 | 60 | 311 | 0.0 | 0.0 | 0.00 | 0.00 | 0.00 | 69 | 1016.2 |
| 20260902111203 | 60 | 311 | 0.0 | 0.0 | 0.00 | 0.00 | 0.00 | 69 | 1016.2 |
| 20260902110744 | 60 | 311 | 0.0 | 0.0 | 0.00 | 0.00 | 0.00 | 68 | 1016.2 |
| 20260902110726 | 60 | 311 | 0.0 | 0.0 | 0.00 | 0.00 | 0.00 | 69 | 1016.1 |
| 20260902105701 | 61 | 311 | 0.0 | 0.0 | 0.00 | 0.00 | 0.00 | 68 | 1016.1 |
| 20260902105205 | 61 | 311 | 0.0 | 0.0 | 0.00 | 0.00 | 0.00 | 68 | 1016.1 |
| 20260902105029 | 61 | 311 | 0.0 | 0.0 | 0.00 | 0.00 | 0.00 | 67 | 1016.1 |
| 20260902104728 | 61 | 311 | 0.0 | 0.0 | 0.00 | 0.00 | 0.00 | 68 | 1016.1 |
| 20260902103704 | 61 | 311 | 0.0 | 0.0 | 0.00 | 0.00 | 0.00 | 67 | 1016.0 |
| 20260902103205 | 61 | 311 | 0.0 | 0.0 | 0.00 | 0.00 | 0.00 | 67 | 1015.9 |
| 20260902102952 | 61 | 311 | 0.0 | 0.0 | 0.00 | 0.00 | 0.00 | 67 | 1015.9 |
| 20260902102448 | 61 | 311 | 0.0 | 0.0 | 0.00 | 0.00 | 0.00 | 66 | 1015.9 |
| 20260902101948 | 61 | 311 | 0.0 | 0.0 | 0.00 | 0.00 | 0.00 | 66 | 1015.9 |
| 20260902101204 | 62 | 311 | 0.0 | 0.0 | 0.00 | 0.00 | 0.00 | 66 | 1015.8 |
| 20260902100704 | 62 | 311 | 0.0 | 0.0 | 0.00 | 0.00 | 0.00 | 66 | 1015.9 |
| 20260902100204 | 62 | 311 | 0.0 | 0.0 | 0.00 | 0.00 | 0.00 | 65 | 1015.8 |
| 20260902095705 | 62 | 311 | 0.0 | 3.0 | 0.00 | 0.00 | 0.00 | 65 | 1015.8 |
| 20260902095454 | 62 | 311 | 0.0 | 7.0 | 0.00 | 0.00 | 0.00 | 65 | 1015.9 |
| 20260902094705 | 62 | 298 | 2.0 | 7.0 | 0.00 | 0.00 | 0.00 | 65 | 1015.8 |
| 20260902094203 | 62 | 318 | 0.0 | 4.0 | 0.00 | 0.00 | 0.00 | 65 | 1015.9 |
| 20260902093704 | 62 | 296 | 0.0 | 3.0 | 0.00 | 0.00 | 0.00 | 65 | 1015.8 |
| 20260902093204 | 62 | 296 | 0.0 | 3.0 | 0.00 | 0.00 | 0.00 | 64 | 1015.8 |
| 20260902092946 | 62 | 293 | 0.0 | 2.0 | 0.00 | 0.00 | 0.00 | 64 | 1015.8 |
| 20260902092202 | 63 | 293 | 0.0 | 2.0 | 0.00 | 0.00 | 0.00 | 64 | 1015.8 |
| 20260902091705 | 63 | 325 | 0.0 | 1.0 | 0.00 | 0.00 | 0.00 | 63 | 1015.9 |
| 20260902091203 | 63 | 325 | 0.0 | 2.0 | 0.00 | 0.00 | 0.00 | 63 | 1016.0 |
| 20260902090701 | 63 | 324 | 0.0 | 8.0 | 0.00 | 0.00 | 0.00 | 63 | 1016.0 |
| 20260902090451 | 63 | 298 | 1.0 | 8.0 | 0.00 | 0.00 | 0.00 | 63 | 1016.1 |
| 20260902085703 | 63 | 298 | 2.0 | 9.0 | 0.00 | 0.00 | 0.00 | 63 | 1016.1 |
| 20260902085205 | 63 | 287 | 1.0 | 9.0 | 0.00 | 0.00 | 0.00 | 62 | 1016.0 |
| 20260902084703 | 63 | 296 | 0.0 | 11.0 | 0.00 | 0.00 | 0.00 | 62 | 1016.1 |
| 20260902084439 | 64 | 296 | 1.0 | 11.0 | 0.00 | 0.00 | 0.00 | 62 | 1016.1 |
| 20260902083655 | 64 | 294 | 1.0 | 11.0 | 0.00 | 0.00 | 0.00 | 62 | 1016.1 |
| 20260902083157 | 64 | 306 | 3.0 | 11.0 | 0.00 | 0.00 | 0.00 | 62 | 1016.1 |
| 20260902082656 | 64 | 303 | 1.0 | 10.0 | 0.00 | 0.00 | 0.00 | 61 | 1016.0 |
| 20260902082149 | 64 | 301 | 0.0 | 12.0 | 0.00 | 0.00 | 0.00 | 61 | 1016.1 |
| 20260902081650 | 64 | 289 | 4.0 | 12.0 | 0.00 | 0.00 | 0.00 | 60 | 1016.1 |
| 20260902081148 | 64 | 325 | 0.0 | 13.0 | 0.00 | 0.00 | 0.00 | 60 | 1016.1 |
| 20260902080648 | 64 | 309 | 0.0 | 13.0 | 0.00 | 0.00 | 0.00 | 60 | 1016.0 |
| 20260902080142 | 64 | 306 | 0.0 | 14.0 | 0.00 | 0.00 | 0.00 | 60 | 1015.9 |
| 20260902075644 | 65 | 302 | 2.0 | 15.0 | 0.00 | 0.00 | 0.00 | 60 | 1015.8 |
| 20260902075142 | 65 | 299 | 5.0 | 15.0 | 0.00 | 0.00 | 0.00 | 59 | 1015.7 |
| 20260902074638 | 65 | 302 | 2.0 | 14.0 | 0.00 | 0.00 | 0.00 | 59 | 1015.8 |
| 20260902074427 | 65 | 298 | 2.0 | 13.0 | 0.00 | 0.00 | 0.00 | 59 | 1015.8 |
| 20260902073728 | 65 | 292 | 7.0 | 14.0 | 0.00 | 0.00 | 0.00 | 58 | 1015.8 |
| 20260902073705 | 65 | 285 | 6.0 | 14.0 | 0.00 | 0.00 | 0.00 | 59 | 1015.7 |
| 20260902072630 | 65 | 307 | 5.0 | 14.0 | 0.00 | 0.00 | 0.00 | 58 | 1015.8 |
| 20260902072131 | 65 | 286 | 6.0 | 15.0 | 0.00 | 0.00 | 0.00 | 58 | 1015.7 |
| 20260902071632 | 65 | 329 | 9.0 | 15.0 | 0.00 | 0.00 | 0.00 | 58 | 1015.6 |
| 20260902071134 | 65 | 298 | 5.0 | 15.0 | 0.00 | 0.00 | 0.00 | 58 | 1015.6 |
| 20260902070634 | 66 | 277 | 7.0 | 14.0 | 0.00 | 0.00 | 0.00 | 57 | 1015.5 |
| 20260902070131 | 66 | 286 | 5.0 | 14.0 | 0.00 | 0.00 | 0.00 | 57 | 1015.5 |
| 20260902065632 | 66 | 296 | 1.0 | 17.0 | 0.00 | 0.00 | 0.00 | 57 | 1015.6 |
| 20260902065419 | 66 | 284 | 9.0 | 17.0 | 0.00 | 0.00 | 0.00 | 57 | 1015.4 |
| 20260902064632 | 66 | 298 | 5.0 | 16.0 | 0.00 | 0.00 | 0.00 | 57 | 1015.4 |
| 20260902064132 | 66 | 302 | 2.0 | 15.0 | 0.00 | 0.00 | 0.00 | 57 | 1015.4 |
| 20260902063636 | 67 | 298 | 3.0 | 13.0 | 0.00 | 0.00 | 0.00 | 56 | 1015.4 |
| 20260902063131 | 67 | 292 | 2.0 | 13.0 | 0.00 | 0.00 | 0.00 | 56 | 1015.5 |
| 20260902062633 | 67 | 289 | 0.0 | 11.0 | 0.00 | 0.00 | 0.00 | 56 | 1015.4 |
| 20260902062130 | 67 | 306 | 2.0 | 14.0 | 0.00 | 0.00 | 0.00 | 56 | 1015.3 |
| 20260902061633 | 67 | 303 | 3.0 | 14.0 | 0.00 | 0.00 | 0.00 | 56 | 1015.3 |
| 20260902061133 | 67 | 302 | 1.0 | 16.0 | 0.00 | 0.00 | 0.00 | 56 | 1015.3 |
| 20260902060628 | 67 | 327 | 4.0 | 16.0 | 0.00 | 0.00 | 0.00 | 55 | 1015.3 |
| 20260902060417 | 68 | 287 | 3.0 | 12.0 | 0.00 | 0.00 | 0.00 | 55 | 1015.2 |
| 20260902055626 | 68 | 292 | 4.0 | 12.0 | 0.00 | 0.00 | 0.00 | 54 | 1015.3 |
| 20260902055123 | 68 | 312 | 5.0 | 12.0 | 0.00 | 0.00 | 0.00 | 54 | 1015.2 |
| 20260902054620 | 68 | 284 | 2.0 | 11.0 | 0.00 | 0.00 | 0.00 | 53 | 1015.2 |
| 20260902054118 | 69 | 311 | 5.0 | 11.0 | 0.00 | 0.00 | 0.00 | 52 | 1015.2 |
| 20260902053619 | 69 | 261 | 0.0 | 7.0 | 0.00 | 0.00 | 0.00 | 51 | 1015.3 |
| 20260902053116 | 69 | 289 | 0.0 | 7.0 | 0.00 | 0.00 | 0.00 | 51 | 1015.2 |
| 20260902052615 | 69 | 292 | 0.0 | 1.0 | 0.00 | 0.00 | 0.00 | 50 | 1015.2 |
| 20260902052113 | 70 | 283 | 0.0 | 4.0 | 0.00 | 0.00 | 0.00 | 49 | 1015.2 |
| 20260902051611 | 70 | 283 | 0.0 | 7.0 | 0.00 | 0.00 | 0.00 | 49 | 1015.2 |
| 20260902051106 | 70 | 303 | 1.0 | 12.0 | 0.00 | 0.00 | 0.00 | 48 | 1015.1 |
| 20260902050605 | 71 | 304 | 4.0 | 12.0 | 0.00 | 0.00 | 0.00 | 48 | 1015.1 |
| 20260902050104 | 71 | 264 | 2.0 | 14.0 | 0.00 | 0.00 | 0.00 | 47 | 1015.1 |
| 20260902045603 | 71 | 295 | 5.0 | 14.0 | 0.00 | 0.00 | 0.00 | 47 | 1015.0 |
| 20260902045105 | 72 | 260 | 2.0 | 11.0 | 0.00 | 0.00 | 0.00 | 46 | 1015.0 |
| 20260902044848 | 72 | 301 | 0.0 | 13.0 | 0.00 | 0.00 | 0.00 | 45 | 1014.9 |
| 20260902044104 | 72 | 299 | 1.0 | 13.0 | 0.00 | 0.00 | 0.00 | 44 | 1014.9 |
| 20260902043604 | 73 | 311 | 1.0 | 11.0 | 0.00 | 0.00 | 0.00 | 44 | 1014.7 |
| 20260902043103 | 73 | 314 | 4.0 | 13.0 | 0.00 | 0.00 | 0.00 | 43 | 1014.7 |
| 20260902042604 | 73 | 313 | 5.0 | 13.0 | 0.00 | 0.00 | 0.00 | 43 | 1014.6 |
| 20260902042104 | 73 | 288 | 1.0 | 12.0 | 0.00 | 0.00 | 0.00 | 44 | 1014.5 |
| 20260902041603 | 73 | 282 | 4.0 | 12.0 | 0.00 | 0.00 | 0.00 | 44 | 1014.5 |
| 20260902041102 | 73 | 313 | 0.0 | 5.0 | 0.00 | 0.00 | 0.00 | 44 | 1014.5 |
| 20260902040603 | 73 | 302 | 0.0 | 5.0 | 0.00 | 0.00 | 0.00 | 44 | 1014.3 |
| 20260902035605 | 74 | 304 | 0.0 | 5.0 | 0.00 | 0.00 | 0.00 | 44 | 1014.2 |
| 20260902035103 | 74 | 298 | 0.0 | 2.0 | 0.00 | 0.00 | 0.00 | 43 | 1014.0 |
| 20260902034603 | 74 | 298 | 0.0 | 3.0 | 0.00 | 0.00 | 0.00 | 44 | 1013.9 |
| 20260902034102 | 74 | 298 | 0.0 | 3.0 | 0.00 | 0.00 | 0.00 | 43 | 1013.9 |
| 20260902033850 | 75 | 314 | 0.0 | 4.0 | 0.00 | 0.00 | 0.00 | 43 | 1013.9 |
| 20260902033104 | 75 | 314 | 0.0 | 4.0 | 0.00 | 0.00 | 0.00 | 43 | 1013.8 |
| 20260902032604 | 75 | 295 | 0.0 | 1.0 | 0.00 | 0.00 | 0.00 | 42 | 1013.7 |
| 20260902032103 | 75 | 300 | 0.0 | 0.0 | 0.00 | 0.00 | 0.00 | 42 | 1013.6 |
| 20260902031605 | 76 | 300 | 0.0 | 0.0 | 0.00 | 0.00 | 0.00 | 42 | 1013.7 |
| 20260902031102 | 76 | 300 | 0.0 | 8.0 | 0.00 | 0.00 | 0.00 | 41 | 1013.5 |
| 20260902030603 | 76 | 300 | 1.0 | 8.0 | 0.00 | 0.00 | 0.00 | 40 | 1013.4 |
| 20260902025849 | 77 | 281 | 0.0 | 4.0 | 0.00 | 0.00 | 0.00 | 38 | 1013.4 |
| 20260902025103 | 77 | 308 | 0.0 | 8.0 | 0.00 | 0.00 | 0.00 | 37 | 1013.4 |
| 20260902024607 | 77 | 336 | 0.0 | 8.0 | 0.00 | 0.00 | 0.00 | 37 | 1013.3 |
| 20260902024103 | 78 | 304 | 0.0 | 10.0 | 0.00 | 0.00 | 0.00 | 36 | 1013.3 |
| 20260902023848 | 78 | 302 | 2.0 | 10.0 | 0.00 | 0.00 | 0.00 | 35 | 1013.3 |
| 20260902023428 | 78 | 292 | 3.0 | 8.0 | 0.00 | 0.00 | 0.00 | 35 | 1013.2 |
| 20260902023421 | 78 | 289 | 1.0 | 8.0 | 0.00 | 0.00 | 0.00 | 35 | 1013.2 |
| 20260902022051 | 78 | 258 | 1.0 | 4.0 | 0.00 | 0.00 | 0.00 | 36 | 1013.2 |
| 20260902021545 | 79 | 263 | 0.0 | 2.0 | 0.00 | 0.00 | 0.00 | 36 | 1013.2 |
| 20260902021036 | 79 | 281 | 0.0 | 0.0 | 0.00 | 0.00 | 0.00 | 35 | 1013.1 |
| 20260902020823 | 79 | 281 | 0.0 | 0.0 | 0.00 | 0.00 | 0.00 | 35 | 1013.1 |
| 20260902020031 | 80 | 281 | 0.0 | 0.0 | 0.00 | 0.00 | 0.00 | 35 | 1013.0 |
| 20260902015532 | 80 | 281 | 0.0 | 0.0 | 0.00 | 0.00 | 0.00 | 35 | 1013.0 |
| 20260902015032 | 80 | 281 | 0.0 | 0.0 | 0.00 | 0.00 | 0.00 | 35 | 1012.9 |
| 20260902014532 | 81 | 281 | 0.0 | 6.0 | 0.00 | 0.00 | 0.00 | 34 | 1012.9 |
| 20260902014032 | 81 | 281 | 1.0 | 6.0 | 0.00 | 0.00 | 0.00 | 35 | 1012.9 |
| 20260902013532 | 81 | 279 | 0.0 | 0.0 | 0.00 | 0.00 | 0.00 | 35 | 1012.8 |
| 20260902013033 | 82 | 279 | 0.0 | 0.0 | 0.00 | 0.00 | 0.00 | 34 | 1012.8 |
| 20260902012532 | 82 | 300 | 0.0 | 5.0 | 0.00 | 0.00 | 0.00 | 34 | 1012.7 |
| 20260902012031 | 82 | 300 | 0.0 | 7.0 | 0.00 | 0.00 | 0.00 | 34 | 1012.8 |
| 20260902011531 | 83 | 301 | 1.0 | 7.0 | 0.00 | 0.00 | 0.00 | 34 | 1012.8 |
| 20260902011032 | 83 | 284 | 0.0 | 0.0 | 0.00 | 0.00 | 0.00 | 34 | 1012.8 |
| 20260902010810 | 83 | 284 | 0.0 | 10.0 | 0.00 | 0.00 | 0.00 | 35 | 1012.8 |
| 20260902010026 | 83 | 284 | 3.0 | 10.0 | 0.00 | 0.00 | 0.00 | 33 | 1012.8 |
| 20260902005507 | 83 | 290 | 1.0 | 4.0 | 0.00 | 0.00 | 0.00 | 34 | 1012.8 |
| 20260902005008 | 83 | 248 | 0.0 | 4.0 | 0.00 | 0.00 | 0.00 | 34 | 1012.9 |
| 20260902004509 | 84 | 248 | 2.0 | 4.0 | 0.00 | 0.00 | 0.00 | 34 | 1012.9 |
| 20260902004005 | 84 | 331 | 0.0 | 0.0 | 0.00 | 0.00 | 0.00 | 33 | 1012.9 |
| 20260902003525 | 84 | 331 | 0.0 | 0.0 | 0.00 | 0.00 | 0.00 | 34 | 1012.8 |
| 20260902003514 | 84 | 331 | 0.0 | 0.0 | 0.00 | 0.00 | 0.00 | 33 | 1012.9 |
| 20260902002738 | 84 | 331 | 0.0 | 4.0 | 0.00 | 0.00 | 0.00 | 34 | 1012.8 |
| 20260902002243 | 84 | 331 | 0.0 | 4.0 | 0.00 | 0.00 | 0.00 | 33 | 1012.8 |
| 20260902001505 | 85 | 296 | 0.0 | 0.0 | 0.00 | 0.00 | 0.00 | 34 | 1012.8 |
| 20260902001003 | 85 | 296 | 3.0 | 8.0 | 0.00 | 0.00 | 0.00 | 33 | 1012.8 |
| 20260902000746 | 85 | 296 | 1.0 | 8.0 | 0.00 | 0.00 | 0.00 | 33 | 1012.9 |
| 20260902000003 | 85 | 286 | 0.0 | 5.0 | 0.00 | 0.00 | 0.00 | 32 | 1012.9 |
| 20260901235504 | 85 | 286 | 1.0 | 6.0 | 0.00 | 0.00 | 0.00 | 31 | 1013.0 |
| 20260901235250 | 85 | 302 | 3.0 | 9.0 | 0.00 | 0.00 | 0.00 | 32 | 1013.0 |
| 20260901234505 | 86 | 254 | 2.0 | 9.0 | 0.00 | 0.00 | 0.00 | 32 | 1013.1 |
| 20260901234004 | 86 | 242 | 4.0 | 8.0 | 0.00 | 0.00 | 0.00 | 32 | 1013.1 |
| 20260901233504 | 86 | 296 | 0.0 | 1.0 | 0.00 | 0.00 | 0.00 | 32 | 1013.0 |
| 20260901233002 | 86 | 230 | 0.0 | 0.0 | 0.00 | 0.00 | 0.00 | 31 | 1013.0 |
| 20260901232504 | 86 | 230 | 0.0 | 5.0 | 0.00 | 0.00 | 0.00 | 33 | 1013.2 |
| 20260901232243 | 86 | 230 | 0.0 | 5.0 | 0.00 | 0.00 | 0.00 | 33 | 1013.2 |
| 20260901231503 | 86 | 253 | 3.0 | 7.0 | 0.00 | 0.00 | 0.00 | 32 | 1013.3 |
| 20260901231004 | 86 | 246 | 0.0 | 8.0 | 0.00 | 0.00 | 0.00 | 32 | 1013.4 |
| 20260901230759 | 86 | 246 | 0.0 | 8.0 | 0.00 | 0.00 | 0.00 | 31 | 1013.5 |
| 20260901230006 | 86 | 244 | 2.0 | 8.0 | 0.00 | 0.00 | 0.00 | 32 | 1013.6 |
| 20260901225739 | 86 | 253 | 6.0 | 9.0 | 0.00 | 0.00 | 0.00 | 31 | 1013.5 |
| 20260901225004 | 86 | 253 | 6.0 | 9.0 | 0.00 | 0.00 | 0.00 | 31 | 1013.6 |
| 20260901224503 | 87 | 269 | 0.0 | 7.0 | 0.00 | 0.00 | 0.00 | 31 | 1013.6 |
| 20260901224002 | 87 | 240 | 4.0 | 7.0 | 0.00 | 0.00 | 0.00 | 31 | 1013.7 |
| 20260901223502 | 87 | 311 | 1.0 | 5.0 | 0.00 | 0.00 | 0.00 | 30 | 1013.8 |
| 20260901223006 | 87 | 294 | 1.0 | 4.0 | 0.00 | 0.00 | 0.00 | 31 | 1013.9 |
| 20260901222746 | 86 | 258 | 0.0 | 7.0 | 0.00 | 0.00 | 0.00 | 31 | 1013.9 |
| 20260901222002 | 86 | 257 | 4.0 | 7.0 | 0.00 | 0.00 | 0.00 | 30 | 1013.9 |
| 20260901221504 | 86 | 248 | 0.0 | 7.0 | 0.00 | 0.00 | 0.00 | 31 | 1013.9 |
| 20260901221003 | 86 | 248 | 1.0 | 7.0 | 0.00 | 0.00 | 0.00 | 30 | 1014.0 |
| 20260901220504 | 86 | 266 | 1.0 | 7.0 | 0.00 | 0.00 | 0.00 | 31 | 1014.2 |
| 20260901220003 | 86 | 232 | 3.0 | 8.0 | 0.00 | 0.00 | 0.00 | 32 | 1014.1 |
| 20260901215505 | 85 | 224 | 3.0 | 8.0 | 0.00 | 0.00 | 0.00 | 33 | 1014.2 |
| 20260901215005 | 85 | 243 | 0.0 | 4.0 | 0.00 | 0.00 | 0.00 | 32 | 1014.3 |
| 20260901214751 | 86 | 243 | 3.0 | 9.0 | 0.00 | 0.00 | 0.00 | 34 | 1014.4 |
| 20260901214005 | 85 | 236 | 4.0 | 9.0 | 0.00 | 0.00 | 0.00 | 33 | 1014.3 |
| 20260901213503 | 86 | 244 | 1.0 | 7.0 | 0.00 | 0.00 | 0.00 | 31 | 1014.4 |
| 20260901213000 | 86 | 244 | 2.0 | 8.0 | 0.00 | 0.00 | 0.00 | 32 | 1014.4 |
| 20260901212457 | 85 | 285 | 2.0 | 8.0 | 0.00 | 0.00 | 0.00 | 32 | 1014.5 |
| 20260901212245 | 85 | 311 | 4.0 | 8.0 | 0.00 | 0.00 | 0.00 | 33 | 1014.5 |
| 20260901211452 | 85 | 250 | 3.0 | 8.0 | 0.00 | 0.00 | 0.00 | 33 | 1014.6 |
| 20260901210954 | 85 | 238 | 0.0 | 6.0 | 0.00 | 0.00 | 0.00 | 35 | 1014.6 |
| 20260901210452 | 85 | 221 | 1.0 | 7.0 | 0.00 | 0.00 | 0.00 | 32 | 1014.7 |
| 20260901205952 | 85 | 216 | 2.0 | 7.0 | 0.00 | 0.00 | 0.00 | 33 | 1014.7 |
| 20260901205452 | 85 | 235 | 0.0 | 3.0 | 0.00 | 0.00 | 0.00 | 33 | 1014.7 |
| 20260901204951 | 85 | 235 | 1.0 | 3.0 | 0.00 | 0.00 | 0.00 | 36 | 1014.8 |
| 20260901204738 | 84 | 234 | 0.0 | 1.0 | 0.00 | 0.00 | 0.00 | 35 | 1014.9 |
| 20260901204036 | 84 | 266 | 0.0 | 0.0 | 0.00 | 0.00 | 0.00 | 33 | 1015.0 |
| 20260901204017 | 84 | 266 | 0.0 | 0.0 | 0.00 | 0.00 | 0.00 | 36 | 1015.0 |
| 20260901202949 | 84 | 266 | 0.0 | 0.0 | 0.00 | 0.00 | 0.00 | 36 | 1015.1 |
| 20260901202448 | 84 | 266 | 0.0 | 0.0 | 0.00 | 0.00 | 0.00 | 36 | 1015.1 |
| 20260901201944 | 84 | 266 | 0.0 | 0.0 | 0.00 | 0.00 | 0.00 | 35 | 1015.3 |
| 20260901201439 | 84 | 266 | 0.0 | 0.0 | 0.00 | 0.00 | 0.00 | 37 | 1015.3 |
| 20260901201011 | 83 | 266 | 0.0 | 0.0 | 0.00 | 0.00 | 0.00 | 37 | 1015.5 |
| 20260901200954 | 83 | 266 | 0.0 | 0.0 | 0.00 | 0.00 | 0.00 | 35 | 1015.4 |
| 20260901195933 | 82 | 266 | 0.0 | 0.0 | 0.00 | 0.00 | 0.00 | 37 | 1015.5 |
| 20260901195433 | 82 | 266 | 0.0 | 6.0 | 0.00 | 0.00 | 0.00 | 38 | 1015.6 |
| 20260901194934 | 82 | 266 | 0.0 | 6.0 | 0.00 | 0.00 | 0.00 | 37 | 1015.7 |
| 20260901194432 | 82 | 236 | 0.0 | 1.0 | 0.00 | 0.00 | 0.00 | 36 | 1015.7 |
| 20260901193932 | 82 | 301 | 0.0 | 1.0 | 0.00 | 0.00 | 0.00 | 37 | 1015.7 |
| 20260901193431 | 82 | 301 | 0.0 | 5.0 | 0.00 | 0.00 | 0.00 | 39 | 1015.9 |
| 20260901192931 | 82 | 301 | 0.0 | 5.0 | 0.00 | 0.00 | 0.00 | 38 | 1015.9 |
| 20260901192432 | 82 | 254 | 0.0 | 5.0 | 0.00 | 0.00 | 0.00 | 40 | 1015.9 |
| 20260901191932 | 81 | 299 | 0.0 | 2.0 | 0.00 | 0.00 | 0.00 | 41 | 1016.0 |
| 20260901191432 | 81 | 299 | 0.0 | 2.0 | 0.00 | 0.00 | 0.00 | 39 | 1016.2 |
| 20260901190931 | 80 | 265 | 0.0 | 6.0 | 0.00 | 0.00 | 0.00 | 39 | 1016.0 |
| 20260901190433 | 80 | 259 | 1.0 | 6.0 | 0.00 | 0.00 | 0.00 | 40 | 1016.1 |
| 20260901185936 | 80 | 307 | 0.0 | 3.0 | 0.00 | 0.00 | 0.00 | 41 | 1016.1 |
| 20260901185433 | 80 | 305 | 0.0 | 4.0 | 0.00 | 0.00 | 0.00 | 41 | 1016.2 |
| 20260901184933 | 80 | 305 | 0.0 | 4.0 | 0.00 | 0.00 | 0.00 | 40 | 1016.2 |
| 20260901184432 | 79 | 300 | 0.0 | 0.0 | 0.00 | 0.00 | 0.00 | 41 | 1016.2 |
| 20260901183931 | 79 | 300 | 0.0 | 0.0 | 0.00 | 0.00 | 0.00 | 40 | 1016.3 |
| 20260901183431 | 79 | 300 | 0.0 | 4.0 | 0.00 | 0.00 | 0.00 | 40 | 1016.2 |
| 20260901182932 | 78 | 300 | 0.0 | 4.0 | 0.00 | 0.00 | 0.00 | 41 | 1016.3 |
| 20260901182432 | 78 | 242 | 0.0 | 0.0 | 0.00 | 0.00 | 0.00 | 42 | 1016.2 |
| 20260901182218 | 78 | 242 | 0.0 | 1.0 | 0.00 | 0.00 | 0.00 | 43 | 1016.4 |
| 20260901181426 | 77 | 242 | 0.0 | 3.0 | 0.00 | 0.00 | 0.00 | 45 | 1016.4 |
| 20260901180919 | 77 | 269 | 0.0 | 9.0 | 0.00 | 0.00 | 0.00 | 43 | 1016.4 |
| 20260901180418 | 77 | 281 | 1.0 | 9.0 | 0.00 | 0.00 | 0.00 | 43 | 1016.4 |
| 20260901175917 | 76 | 313 | 0.0 | 0.0 | 0.00 | 0.00 | 0.00 | 44 | 1016.4 |
| 20260901175708 | 76 | 313 | 0.0 | 6.0 | 0.00 | 0.00 | 0.00 | 45 | 1016.5 |
| 20260901174911 | 76 | 306 | 0.0 | 8.0 | 0.00 | 0.00 | 0.00 | 45 | 1016.5 |
| 20260901174408 | 75 | 306 | 0.0 | 9.0 | 0.00 | 0.00 | 0.00 | 44 | 1016.5 |
| 20260901173907 | 75 | 290 | 0.0 | 9.0 | 0.00 | 0.00 | 0.00 | 44 | 1016.5 |
| 20260901173403 | 75 | 279 | 0.0 | 7.0 | 0.00 | 0.00 | 0.00 | 46 | 1016.4 |
| 20260901172902 | 74 | 294 | 0.0 | 5.0 | 0.00 | 0.00 | 0.00 | 46 | 1016.4 |
| 20260901172404 | 74 | 281 | 1.0 | 4.0 | 0.00 | 0.00 | 0.00 | 46 | 1016.4 |
| 20260901172152 | 74 | 294 | 0.0 | 10.0 | 0.00 | 0.00 | 0.00 | 47 | 1016.4 |
| 20260901171356 | 73 | 281 | 2.0 | 10.0 | 0.00 | 0.00 | 0.00 | 47 | 1016.3 |
| 20260901170855 | 73 | 301 | 0.0 | 8.0 | 0.00 | 0.00 | 0.00 | 48 | 1016.3 |
| 20260901170356 | 72 | 285 | 1.0 | 9.0 | 0.00 | 0.00 | 0.00 | 49 | 1016.3 |
| 20260901165853 | 71 | 315 | 2.0 | 11.0 | 0.00 | 0.00 | 0.00 | 50 | 1016.4 |
| 20260901165351 | 71 | 323 | 0.0 | 11.0 | 0.00 | 0.00 | 0.00 | 51 | 1016.3 |
| 20260901164851 | 71 | 286 | 1.0 | 12.0 | 0.00 | 0.00 | 0.00 | 50 | 1016.2 |
| 20260901164348 | 70 | 277 | 4.0 | 12.0 | 0.00 | 0.00 | 0.00 | 51 | 1016.2 |
| 20260901163845 | 70 | 304 | 0.0 | 11.0 | 0.00 | 0.00 | 0.00 | 53 | 1016.2 |
| 20260901163632 | 70 | 323 | 3.0 | 11.0 | 0.00 | 0.00 | 0.00 | 52 | 1016.1 |
| 20260901162839 | 70 | 279 | 2.0 | 8.0 | 0.00 | 0.00 | 0.00 | 53 | 1016.0 |
| 20260901162332 | 69 | 306 | 0.0 | 8.0 | 0.00 | 0.00 | 0.00 | 53 | 1016.1 |
| 20260901161835 | 69 | 301 | 1.0 | 8.0 | 0.00 | 0.00 | 0.00 | 54 | 1016.0 |
| 20260901161331 | 69 | 293 | 1.0 | 6.0 | 0.00 | 0.00 | 0.00 | 54 | 1016.0 |
| 20260901160833 | 68 | 312 | 0.0 | 9.0 | 0.00 | 0.00 | 0.00 | 56 | 1015.9 |
| 20260901160618 | 67 | 312 | 0.0 | 9.0 | 0.00 | 0.00 | 0.00 | 57 | 1015.8 |
| 20260901155833 | 67 | 296 | 0.0 | 9.0 | 0.00 | 0.00 | 0.00 | 58 | 1015.7 |
| 20260901155331 | 66 | 313 | 0.0 | 13.0 | 0.00 | 0.00 | 0.00 | 59 | 1015.6 |